createdAt,value
2023-06-08T00:00:31.009Z,88
2023-06-08T00:01:02.730Z,88
2023-06-08T00:01:29.786Z,88
2023-06-08T00:02:01.054Z,88
2023-06-08T00:02:30.825Z,88
2023-06-08T00:03:02.599Z,88
2023-06-08T00:03:32.896Z,88
2023-06-08T00:04:04.618Z,88
2023-06-08T00:04:35.058Z,88
2023-06-08T00:05:07.204Z,88
2023-06-08T00:05:36.801Z,88
2023-06-08T00:06:08.548Z,88
2023-06-08T00:06:39.800Z,88
2023-06-08T00:07:10.566Z,88
2023-06-08T00:07:41.669Z,88
2023-06-08T00:08:12.449Z,88
2023-06-08T00:08:43.036Z,88
2023-06-08T00:09:14.473Z,88
2023-06-08T00:09:44.759Z,89
2023-06-08T00:10:17.575Z,89
2023-06-08T00:10:46.733Z,89
2023-06-08T00:11:18.488Z,89
2023-06-08T00:11:49.737Z,89
2023-06-08T00:12:20.964Z,89
2023-06-08T00:12:50.861Z,89
2023-06-08T00:13:22.652Z,90
2023-06-08T00:13:52.808Z,90
2023-06-08T00:14:25.165Z,90
2023-06-08T00:14:54.831Z,90
2023-06-08T00:15:27.327Z,90
2023-06-08T00:15:56.851Z,90
2023-06-08T00:16:28.492Z,90
2023-06-08T00:16:59.807Z,90
2023-06-08T00:17:30.648Z,89
2023-06-08T00:18:01.084Z,88
2023-06-08T00:18:32.551Z,88
2023-06-08T00:19:02.884Z,87
2023-06-08T00:19:34.645Z,87
2023-06-08T00:20:05.920Z,87
2023-06-08T00:20:44.053Z,87
2023-06-08T00:21:06.876Z,88
2023-06-08T00:21:38.717Z,87
2023-06-08T00:22:09.880Z,87
2023-06-08T00:22:41.307Z,87
2023-06-08T00:23:10.953Z,87
2023-06-08T00:23:42.533Z,87
2023-06-08T00:24:13.121Z,87
2023-06-08T00:24:43.818Z,87
2023-06-08T00:25:15.864Z,87
2023-06-08T00:25:46.438Z,87
2023-06-08T00:26:16.749Z,87
2023-06-08T00:26:48.454Z,87
2023-06-08T00:27:19.842Z,87
2023-06-08T00:27:51.208Z,87
2023-06-08T00:28:20.889Z,87
2023-06-08T00:28:52.630Z,87
2023-06-08T00:29:22.782Z,87
2023-06-08T00:29:54.439Z,87
2023-06-08T00:30:26.789Z,88
2023-06-08T00:30:56.604Z,88
2023-06-08T00:31:26.834Z,88
2023-06-08T00:31:58.706Z,88
2023-06-08T00:32:29.775Z,88
2023-06-08T00:33:00.841Z,88
2023-06-08T00:33:30.774Z,88
2023-06-08T00:34:02.499Z,88
2023-06-08T00:34:32.744Z,88
2023-06-08T00:35:05.630Z,88
2023-06-08T00:35:34.818Z,88
2023-06-08T00:36:06.465Z,88
2023-06-08T00:36:36.750Z,89
2023-06-08T00:37:08.565Z,89
2023-06-08T00:37:39.812Z,89
2023-06-08T00:38:10.539Z,89
2023-06-08T00:38:41.371Z,89
2023-06-08T00:39:12.428Z,89
2023-06-08T00:39:43.507Z,89
2023-06-08T00:40:14.988Z,89
2023-06-08T00:40:44.971Z,89
2023-06-08T00:41:17.291Z,89
2023-06-08T00:41:46.855Z,89
2023-06-08T00:42:18.495Z,89
2023-06-08T00:42:49.762Z,89
2023-06-08T00:43:20.856Z,89
2023-06-08T00:43:50.821Z,89
2023-06-08T00:44:22.588Z,89
2023-06-08T00:44:52.829Z,89
2023-06-08T00:45:25.308Z,90
2023-06-08T00:45:55.061Z,90
2023-06-08T00:46:26.544Z,90
2023-06-08T00:46:56.812Z,90
2023-06-08T00:47:28.467Z,90
2023-06-08T00:48:00.376Z,90
2023-06-08T00:48:30.695Z,90
2023-06-08T00:49:00.898Z,90
2023-06-08T00:49:32.449Z,90
2023-06-08T00:50:03.839Z,90
2023-06-08T00:50:34.436Z,90
2023-06-08T00:51:04.850Z,90
2023-06-08T00:51:36.593Z,90
2023-06-08T00:52:08.288Z,90
2023-06-08T00:52:38.690Z,90
2023-06-08T00:53:09.813Z,90
2023-06-08T00:53:40.781Z,90
2023-06-08T00:54:10.788Z,90
2023-06-08T00:54:43.514Z,90
2023-06-08T00:55:13.837Z,91
2023-06-08T00:55:44.634Z,91
2023-06-08T00:56:14.759Z,91
2023-06-08T00:56:46.496Z,91
2023-06-08T00:57:16.833Z,91
2023-06-08T00:57:48.554Z,91
2023-06-08T00:58:19.756Z,91
2023-06-08T00:58:50.504Z,91
2023-06-08T00:59:20.899Z,91
2023-06-08T00:59:52.477Z,91
2023-06-08T01:00:24.773Z,91
2023-06-08T01:00:57.092Z,91
2023-06-08T01:01:24.808Z,91
2023-06-08T01:01:56.604Z,91
2023-06-08T01:02:26.827Z,91
2023-06-08T01:02:58.554Z,92
2023-06-08T01:03:29.774Z,91
2023-06-08T01:04:01.057Z,92
2023-06-08T01:04:31.233Z,91
2023-06-08T01:05:03.177Z,92
2023-06-08T01:05:33.317Z,92
2023-06-08T01:06:04.547Z,92
2023-06-08T01:06:34.784Z,92
2023-06-08T01:07:06.517Z,92
2023-06-08T01:07:36.838Z,91
2023-06-08T01:08:09.555Z,91
2023-06-08T01:08:39.774Z,91
2023-06-08T01:09:10.460Z,91
2023-06-08T01:09:40.775Z,91
2023-06-08T01:10:13.036Z,91
2023-06-08T01:10:43.310Z,91
2023-06-08T01:11:14.450Z,91
2023-06-08T01:11:44.723Z,91
2023-06-08T01:12:16.460Z,90
2023-06-08T01:12:46.801Z,90
2023-06-08T01:13:18.480Z,90
2023-06-08T01:13:49.757Z,89
2023-06-08T01:14:20.959Z,89
2023-06-08T01:14:50.767Z,89
2023-06-08T01:15:23.414Z,89
2023-06-08T01:15:52.871Z,88
2023-06-08T01:16:24.541Z,88
2023-06-08T01:16:54.734Z,88
2023-06-08T01:17:35.995Z,89
2023-06-08T01:17:56.892Z,89
2023-06-08T01:18:28.537Z,88
2023-06-08T01:18:59.744Z,89
2023-06-08T01:19:30.457Z,89
2023-06-08T01:20:02.119Z,88
2023-06-08T01:20:45.209Z,88
2023-06-08T01:21:02.809Z,88
2023-06-08T01:21:35.314Z,88
2023-06-08T01:22:05.071Z,88
2023-06-08T01:22:36.458Z,88
2023-06-08T01:23:06.840Z,88
2023-06-08T01:23:38.545Z,88
2023-06-08T01:24:09.821Z,89
2023-06-08T01:24:40.096Z,88
2023-06-08T01:25:11.344Z,88
2023-06-08T01:25:43.774Z,89
2023-06-08T01:26:13.002Z,89
2023-06-08T01:26:44.476Z,88
2023-06-08T01:27:14.757Z,88
2023-06-08T01:27:46.447Z,88
2023-06-08T01:28:16.866Z,87
2023-06-08T01:28:48.453Z,87
2023-06-08T01:29:19.782Z,87
2023-06-08T01:29:50.498Z,87
2023-06-08T01:30:22.303Z,87
2023-06-08T01:30:52.539Z,87
2023-06-08T01:31:22.961Z,87
2023-06-08T01:31:54.517Z,87
2023-06-08T01:32:25.626Z,88
2023-06-08T01:32:56.611Z,88
2023-06-08T01:33:26.763Z,88
2023-06-08T01:33:58.518Z,89
2023-06-08T01:34:29.794Z,89
2023-06-08T01:35:02.792Z,89
2023-06-08T01:35:30.798Z,89
2023-06-08T01:36:02.447Z,90
2023-06-08T01:36:32.852Z,90
2023-06-08T01:37:04.614Z,90
2023-06-08T01:37:34.725Z,91
2023-06-08T01:38:08.754Z,91
2023-06-08T01:38:36.722Z,91
2023-06-08T01:39:08.778Z,91
2023-06-08T01:39:40.424Z,91
2023-06-08T01:40:10.492Z,91
2023-06-08T01:40:45.270Z,92
2023-06-08T01:41:11.741Z,92
2023-06-08T01:41:44.451Z,92
2023-06-08T01:42:13.919Z,92
2023-06-08T01:42:45.582Z,92
2023-06-08T01:43:15.816Z,92
2023-06-08T01:43:47.511Z,92
2023-06-08T01:44:17.765Z,92
2023-06-08T01:44:50.495Z,92
2023-06-08T01:45:21.152Z,92
2023-06-08T01:45:51.513Z,92
2023-06-08T01:46:21.843Z,92
2023-06-08T01:46:54.636Z,92
2023-06-08T01:47:23.750Z,92
2023-06-08T01:47:55.662Z,92
2023-06-08T01:48:25.823Z,93
2023-06-08T01:48:57.469Z,93
2023-06-08T01:49:27.731Z,93
2023-06-08T01:50:00.625Z,93
2023-06-08T01:50:30.567Z,93
2023-06-08T01:51:01.406Z,93
2023-06-08T01:51:31.766Z,93
2023-06-08T01:52:03.433Z,93
2023-06-08T01:52:34.623Z,93
2023-06-08T01:53:05.588Z,93
2023-06-08T01:53:35.726Z,93
2023-06-08T01:54:07.477Z,93
2023-06-08T01:54:37.931Z,93
2023-06-08T01:55:11.314Z,93
2023-06-08T01:55:40.158Z,93
2023-06-08T01:56:11.528Z,93
2023-06-08T01:56:41.886Z,93
2023-06-08T01:57:13.494Z,93
2023-06-08T01:57:43.945Z,93
2023-06-08T01:58:15.496Z,93
2023-06-08T01:58:45.766Z,93
2023-06-08T01:59:17.607Z,93
2023-06-08T01:59:47.770Z,93
2023-06-08T02:00:25.100Z,93
2023-06-08T02:01:13.008Z,93
2023-06-08T02:01:23.208Z,93
2023-06-08T02:01:51.878Z,93
2023-06-08T02:02:53.942Z,92
2023-06-08T02:03:25.524Z,92
2023-06-08T02:03:55.765Z,92
2023-06-08T02:04:27.524Z,92
2023-06-08T02:04:57.774Z,92
2023-06-08T02:05:31.271Z,92
2023-06-08T02:06:01.226Z,92
2023-06-08T02:06:31.823Z,92
2023-06-08T02:07:01.823Z,92
2023-06-08T02:07:33.648Z,92
2023-06-08T02:08:03.877Z,92
2023-06-08T02:08:36.780Z,92
2023-06-08T02:09:05.756Z,92
2023-06-08T02:09:37.428Z,92
2023-06-08T02:10:09.306Z,92
2023-06-08T02:10:40.443Z,92
2023-06-08T02:11:09.840Z,92
2023-06-08T02:11:41.434Z,92
2023-06-08T02:12:11.849Z,92
2023-06-08T02:12:43.867Z,92
2023-06-08T02:13:13.793Z,93
2023-06-08T02:13:45.542Z,93
2023-06-08T02:14:15.788Z,93
2023-06-08T02:14:47.453Z,92
2023-06-08T02:15:19.229Z,92
2023-06-08T02:15:50.488Z,92
2023-06-08T02:16:20.202Z,93
2023-06-08T02:16:51.528Z,93
2023-06-08T02:17:21.757Z,93
2023-06-08T02:17:53.476Z,93
2023-06-08T02:18:23.713Z,93
2023-06-08T02:18:55.527Z,93
2023-06-08T02:19:26.566Z,93
2023-06-08T02:19:57.492Z,93
2023-06-08T02:20:42.804Z,93
2023-06-08T02:21:01.350Z,93
2023-06-08T02:21:29.811Z,93
2023-06-08T02:22:00.883Z,93
2023-06-08T02:22:32.514Z,93
2023-06-08T02:23:03.154Z,93
2023-06-08T02:23:34.548Z,93
2023-06-08T02:24:04.855Z,93
2023-06-08T02:24:35.714Z,93
2023-06-08T02:25:07.332Z,93
2023-06-08T02:25:38.569Z,93
2023-06-08T02:26:09.966Z,93
2023-06-08T02:26:40.831Z,93
2023-06-08T02:27:10.746Z,93
2023-06-08T02:27:42.458Z,93
2023-06-08T02:28:12.797Z,93
2023-06-08T02:28:45.142Z,93
2023-06-08T02:29:14.762Z,93
2023-06-08T02:29:46.897Z,93
2023-06-08T02:30:18.588Z,94
2023-06-08T02:30:48.569Z,94
2023-06-08T02:31:19.851Z,94
2023-06-08T02:31:50.501Z,94
2023-06-08T02:32:20.774Z,93
2023-06-08T02:32:52.850Z,94
2023-06-08T02:33:22.762Z,93
2023-06-08T02:33:54.489Z,93
2023-06-08T02:34:24.745Z,93
2023-06-08T02:34:56.483Z,93
2023-06-08T02:35:27.992Z,93
2023-06-08T02:35:58.494Z,93
2023-06-08T02:36:29.752Z,93
2023-06-08T02:37:00.968Z,93
2023-06-08T02:37:31.176Z,93
2023-06-08T02:38:02.524Z,92
2023-06-08T02:38:32.754Z,92
2023-06-08T02:39:04.493Z,92
2023-06-08T02:39:35.681Z,92
2023-06-08T02:40:07.417Z,92
2023-06-08T02:40:43.687Z,92
2023-06-08T02:41:08.649Z,92
2023-06-08T02:41:39.763Z,92
2023-06-08T02:42:11.328Z,92
2023-06-08T02:42:40.812Z,92
2023-06-08T02:43:12.443Z,92
2023-06-08T02:43:43.145Z,92
2023-06-08T02:44:14.435Z,92
2023-06-08T02:44:44.736Z,92
2023-06-08T02:45:17.473Z,92
2023-06-08T02:45:46.809Z,92
2023-06-08T02:46:18.941Z,92
2023-06-08T02:46:49.749Z,92
2023-06-08T02:47:20.929Z,91
2023-06-08T02:47:50.759Z,91
2023-06-08T02:48:22.646Z,91
2023-06-08T02:48:52.806Z,91
2023-06-08T02:49:24.454Z,92
2023-06-08T02:49:54.722Z,91
2023-06-08T02:50:27.044Z,91
2023-06-08T02:50:56.894Z,91
2023-06-08T02:51:28.522Z,91
2023-06-08T02:52:00.196Z,91
2023-06-08T02:52:30.450Z,91
2023-06-08T02:53:01.658Z,91
2023-06-08T02:53:32.459Z,91
2023-06-08T02:54:02.791Z,90
2023-06-08T02:54:35.559Z,90
2023-06-08T02:55:05.847Z,90
2023-06-08T02:55:37.265Z,90
2023-06-08T02:56:06.750Z,90
2023-06-08T02:56:38.991Z,90
2023-06-08T02:57:09.827Z,89
2023-06-08T02:57:40.783Z,89
2023-06-08T02:58:10.787Z,89
2023-06-08T02:58:42.535Z,89
2023-06-08T02:59:12.783Z,89
2023-06-08T02:59:45.234Z,88
2023-06-08T03:00:16.278Z,87
2023-06-08T03:01:00.620Z,87
2023-06-08T03:01:21.853Z,86
2023-06-08T03:01:48.629Z,86
2023-06-08T03:02:20.647Z,86
2023-06-08T03:02:50.492Z,86
2023-06-08T03:03:20.847Z,87
2023-06-08T03:03:52.581Z,88
2023-06-08T03:04:23.025Z,88
2023-06-08T03:04:56.814Z,89
2023-06-08T03:05:25.359Z,90
2023-06-08T03:05:55.888Z,90
2023-06-08T03:06:27.967Z,91
2023-06-08T03:06:58.099Z,92
2023-06-08T03:07:30.595Z,92
2023-06-08T03:08:00.684Z,93
2023-06-08T03:08:31.721Z,93
2023-06-08T03:09:02.117Z,93
2023-06-08T03:09:33.737Z,94
2023-06-08T03:10:05.295Z,94
2023-06-08T03:10:36.211Z,94
2023-06-08T03:11:05.915Z,94
2023-06-08T03:11:37.821Z,94
2023-06-08T03:12:08.143Z,95
2023-06-08T03:12:40.918Z,95
2023-06-08T03:13:11.173Z,95
2023-06-08T03:13:41.592Z,95
2023-06-08T03:14:11.924Z,95
2023-06-08T03:14:43.768Z,95
2023-06-08T03:15:15.609Z,95
2023-06-08T03:15:47.037Z,95
2023-06-08T03:16:15.962Z,95
2023-06-08T03:16:47.624Z,95
2023-06-08T03:17:17.978Z,95
2023-06-08T03:17:50.595Z,95
2023-06-08T03:18:20.216Z,95
2023-06-08T03:18:51.613Z,95
2023-06-08T03:19:21.806Z,95
2023-06-08T03:19:54.020Z,95
2023-06-08T03:20:24.624Z,95
2023-06-08T03:20:55.567Z,95
2023-06-08T03:21:25.880Z,95
2023-06-08T03:21:57.578Z,95
2023-06-08T03:22:27.871Z,95
2023-06-08T03:23:01.062Z,95
2023-06-08T03:23:29.957Z,95
2023-06-08T03:24:01.784Z,95
2023-06-08T03:24:31.855Z,95
2023-06-08T03:25:03.849Z,95
2023-06-08T03:25:36.103Z,95
2023-06-08T03:26:04.881Z,95
2023-06-08T03:26:37.029Z,94
2023-06-08T03:27:06.858Z,94
2023-06-08T03:27:38.868Z,94
2023-06-08T03:28:10.237Z,94
2023-06-08T03:28:40.824Z,94
2023-06-08T03:29:10.906Z,94
2023-06-08T03:29:45.741Z,94
2023-06-08T03:30:15.086Z,93
2023-06-08T03:30:44.534Z,93
2023-06-08T03:31:15.638Z,94
2023-06-08T03:31:45.874Z,93
2023-06-08T03:32:17.714Z,93
2023-06-08T03:32:47.918Z,92
2023-06-08T03:33:20.568Z,92
2023-06-08T03:33:49.891Z,92
2023-06-08T03:34:21.612Z,92
2023-06-08T03:34:51.942Z,92
2023-06-08T03:35:24.218Z,92
2023-06-08T03:35:53.926Z,93
2023-06-08T03:36:25.666Z,93
2023-06-08T03:36:55.851Z,93
2023-06-08T03:37:27.711Z,93
2023-06-08T03:37:58.242Z,94
2023-06-08T03:38:31.186Z,94
2023-06-08T03:39:00.349Z,94
2023-06-08T03:39:31.596Z,94
2023-06-08T03:40:03.486Z,94
2023-06-08T03:40:44.934Z,94
2023-06-08T03:41:04.153Z,94
2023-06-08T03:41:35.516Z,94
2023-06-08T03:42:05.910Z,94
2023-06-08T03:42:38.717Z,94
2023-06-08T03:43:07.939Z,94
2023-06-08T03:43:40.621Z,94
2023-06-08T03:44:10.136Z,94
2023-06-08T03:44:41.800Z,94
2023-06-08T03:45:12.750Z,95
2023-06-08T03:45:43.866Z,95
2023-06-08T03:46:14.045Z,95
2023-06-08T03:46:46.049Z,95
2023-06-08T03:47:15.976Z,95
2023-06-08T03:47:48.019Z,95
2023-06-08T03:48:17.863Z,95
2023-06-08T03:48:50.588Z,95
2023-06-08T03:49:20.175Z,95
2023-06-08T03:49:51.581Z,95
2023-06-08T03:50:22.359Z,95
2023-06-08T03:50:53.629Z,95
2023-06-08T03:51:23.873Z,95
2023-06-08T03:51:55.599Z,95
2023-06-08T03:52:25.892Z,96
2023-06-08T03:52:57.682Z,96
2023-06-08T03:53:28.600Z,95
2023-06-08T03:54:00.933Z,95
2023-06-08T03:54:29.891Z,96
2023-06-08T03:55:03.112Z,96
2023-06-08T03:55:31.860Z,96
2023-06-08T03:56:04.376Z,96
2023-06-08T03:56:33.990Z,96
2023-06-08T03:57:05.723Z,96
2023-06-08T03:57:36.080Z,96
2023-06-08T03:58:07.533Z,96
2023-06-08T03:58:37.875Z,96
2023-06-08T03:59:11.470Z,96
2023-06-08T03:59:40.298Z,96
2023-06-08T04:00:14.109Z,96
2023-06-08T04:00:54.257Z,96
2023-06-08T04:01:13.025Z,96
2023-06-08T04:01:44.723Z,96
2023-06-08T04:02:14.960Z,96
2023-06-08T04:02:47.448Z,96
2023-06-08T04:03:17.089Z,96
2023-06-08T04:03:48.708Z,96
2023-06-08T04:04:20.171Z,95
2023-06-08T04:04:50.614Z,95
2023-06-08T04:05:21.401Z,95
2023-06-08T04:05:52.796Z,95
2023-06-08T04:06:22.932Z,95
2023-06-08T04:06:55.206Z,95
2023-06-08T04:07:24.838Z,95
2023-06-08T04:07:57.695Z,95
2023-06-08T04:08:26.937Z,95
2023-06-08T04:08:58.825Z,95
2023-06-08T04:09:30.564Z,95
2023-06-08T04:10:01.484Z,95
2023-06-08T04:10:31.421Z,95
2023-06-08T04:11:02.554Z,95
2023-06-08T04:11:32.953Z,95
2023-06-08T04:12:04.719Z,95
2023-06-08T04:12:34.833Z,95
2023-06-08T04:13:06.588Z,95
2023-06-08T04:13:37.576Z,95
2023-06-08T04:14:08.714Z,95
2023-06-08T04:14:39.894Z,95
2023-06-08T04:15:12.089Z,95
2023-06-08T04:15:41.052Z,95
2023-06-08T04:16:12.726Z,95
2023-06-08T04:16:43.197Z,95
2023-06-08T04:17:14.626Z,95
2023-06-08T04:17:45.363Z,95
2023-06-08T04:18:16.580Z,95
2023-06-08T04:18:46.888Z,95
2023-06-08T04:19:18.640Z,95
2023-06-08T04:19:49.879Z,95
2023-06-08T04:20:22.813Z,95
2023-06-08T04:20:52.566Z,95
2023-06-08T04:21:22.568Z,95
2023-06-08T04:21:53.011Z,95
2023-06-08T04:22:25.701Z,95
2023-06-08T04:22:55.074Z,95
2023-06-08T04:23:26.613Z,95
2023-06-08T04:23:56.979Z,95
2023-06-08T04:24:31.746Z,95
2023-06-08T04:24:59.847Z,95
2023-06-08T04:25:30.411Z,95
2023-06-08T04:26:02.007Z,95
2023-06-08T04:26:31.873Z,95
2023-06-08T04:27:04.464Z,95
2023-06-08T04:27:33.896Z,95
2023-06-08T04:28:05.620Z,94
2023-06-08T04:28:36.201Z,94
2023-06-08T04:29:07.619Z,94
2023-06-08T04:29:37.878Z,94
2023-06-08T04:30:11.588Z,94
2023-06-08T04:30:40.311Z,94
2023-06-08T04:31:11.600Z,94
2023-06-08T04:31:42.100Z,94
2023-06-08T04:32:13.889Z,94
2023-06-08T04:32:44.292Z,94
2023-06-08T04:33:15.636Z,94
2023-06-08T04:33:46.691Z,94
2023-06-08T04:34:17.601Z,94
2023-06-08T04:34:47.848Z,94
2023-06-08T04:35:21.178Z,94
2023-06-08T04:35:49.895Z,93
2023-06-08T04:36:21.567Z,94
2023-06-08T04:36:51.857Z,94
2023-06-08T04:37:23.526Z,93
2023-06-08T04:37:54.698Z,93
2023-06-08T04:38:25.598Z,93
2023-06-08T04:38:55.995Z,93
2023-06-08T04:39:27.659Z,93
2023-06-08T04:39:57.987Z,93
2023-06-08T04:40:46.265Z,92
2023-06-08T04:41:00.306Z,92
2023-06-08T04:41:31.948Z,92
2023-06-08T04:42:01.971Z,92
2023-06-08T04:42:33.710Z,92
2023-06-08T04:43:04.011Z,92
2023-06-08T04:43:36.910Z,92
2023-06-08T04:44:05.889Z,92
2023-06-08T04:44:37.536Z,93
2023-06-08T04:45:09.127Z,93
2023-06-08T04:45:41.446Z,93
2023-06-08T04:46:10.319Z,93
2023-06-08T04:46:41.819Z,93
2023-06-08T04:47:12.785Z,93
2023-06-08T04:47:44.097Z,93
2023-06-08T04:48:14.270Z,93
2023-06-08T04:48:45.616Z,93
2023-06-08T04:49:15.873Z,93
2023-06-08T04:49:47.932Z,93
2023-06-08T04:50:18.520Z,92
2023-06-08T04:50:51.490Z,92
2023-06-08T04:51:20.264Z,92
2023-06-08T04:51:50.860Z,92
2023-06-08T04:52:22.679Z,92
2023-06-08T04:52:53.373Z,92
2023-06-08T04:53:24.608Z,92
2023-06-08T04:53:55.817Z,92
2023-06-08T04:54:27.556Z,92
2023-06-08T04:54:56.913Z,92
2023-06-08T04:55:29.040Z,91
2023-06-08T04:55:59.873Z,91
2023-06-08T04:56:30.915Z,91
2023-06-08T04:57:00.986Z,91
2023-06-08T04:57:32.595Z,90
2023-06-08T04:58:03.276Z,90
2023-06-08T04:58:35.253Z,90
2023-06-08T04:59:04.852Z,89
2023-06-08T04:59:36.859Z,89
2023-06-08T05:00:08.531Z,89
2023-06-08T05:00:56.171Z,89
2023-06-08T05:01:10.062Z,88
2023-06-08T05:01:42.028Z,88
2023-06-08T05:02:11.194Z,88
2023-06-08T05:02:42.607Z,88
2023-06-08T05:03:13.229Z,89
2023-06-08T05:03:44.703Z,89
2023-06-08T05:04:14.894Z,88
2023-06-08T05:04:46.584Z,88
2023-06-08T05:05:17.363Z,88
2023-06-08T05:05:48.597Z,88
2023-06-08T05:06:19.945Z,88
2023-06-08T05:06:50.555Z,88
2023-06-08T05:07:21.778Z,88
2023-06-08T05:07:52.715Z,88
2023-06-08T05:08:23.044Z,88
2023-06-08T05:08:54.747Z,88
2023-06-08T05:09:25.026Z,88
2023-06-08T05:09:57.650Z,87
2023-06-08T05:10:27.583Z,88
2023-06-08T05:10:58.726Z,88
2023-06-08T05:11:30.089Z,88
2023-06-08T05:12:01.294Z,87
2023-06-08T05:12:31.058Z,87
2023-06-08T05:13:05.017Z,87
2023-06-08T05:13:33.026Z,87
2023-06-08T05:14:04.868Z,88
2023-06-08T05:14:36.033Z,88
2023-06-08T05:15:07.435Z,87
2023-06-08T05:15:37.732Z,87
2023-06-08T05:16:07.999Z,87
2023-06-08T05:16:41.526Z,87
2023-06-08T05:17:10.189Z,87
2023-06-08T05:17:46.405Z,86
2023-06-08T05:18:12.460Z,86
2023-06-08T05:18:43.229Z,86
2023-06-08T05:19:14.760Z,86
2023-06-08T05:19:45.032Z,85
2023-06-08T05:20:17.250Z,85
2023-06-08T05:20:48.751Z,86
2023-06-08T05:21:18.783Z,86
2023-06-08T05:21:50.263Z,85
2023-06-08T05:22:21.258Z,86
2023-06-08T05:22:51.064Z,85
2023-06-08T05:23:24.559Z,85
2023-06-08T05:23:53.093Z,85
2023-06-08T05:24:24.768Z,86
2023-06-08T05:24:55.593Z,85
2023-06-08T05:25:26.640Z,83
2023-06-08T05:25:57.736Z,83
2023-06-08T05:26:28.112Z,83
2023-06-08T05:27:00.891Z,82
2023-06-08T05:27:30.747Z,82
2023-06-08T05:28:01.997Z,82
2023-06-08T05:28:32.078Z,82
2023-06-08T05:29:04.069Z,83
2023-06-08T05:29:34.073Z,82
2023-06-08T05:30:08.505Z,81
2023-06-08T05:30:36.201Z,82
2023-06-08T05:31:07.755Z,82
2023-06-08T05:31:38.587Z,81
2023-06-08T05:32:10.771Z,82
2023-06-08T05:32:40.511Z,82
2023-06-08T05:33:11.964Z,83
2023-06-08T05:33:41.961Z,84
2023-06-08T05:34:15.009Z,85
2023-06-08T05:34:44.528Z,85
2023-06-08T05:35:16.287Z,85
2023-06-08T05:35:46.012Z,84
2023-06-08T05:36:17.710Z,84
2023-06-08T05:36:47.925Z,84
2023-06-08T05:37:20.875Z,83
2023-06-08T05:37:50.125Z,84
2023-06-08T05:38:22.391Z,83
2023-06-08T05:38:52.007Z,83
2023-06-08T05:39:23.767Z,84
2023-06-08T05:39:54.121Z,84
2023-06-08T05:40:26.797Z,84
2023-06-08T05:40:56.802Z,85
2023-06-08T05:41:27.769Z,85
2023-06-08T05:41:57.986Z,85
2023-06-08T05:42:30.878Z,85
2023-06-08T05:43:00.342Z,85
2023-06-08T05:43:32.406Z,85
2023-06-08T05:44:02.012Z,85
2023-06-08T05:44:33.718Z,85
2023-06-08T05:45:06.329Z,84
2023-06-08T05:45:39.169Z,85
2023-06-08T05:46:06.005Z,85
2023-06-08T05:46:36.981Z,84
2023-06-08T05:47:09.805Z,84
2023-06-08T05:47:40.662Z,84
2023-06-08T05:48:11.046Z,83
2023-06-08T05:48:41.136Z,83
2023-06-08T05:49:13.949Z,83
2023-06-08T05:49:43.187Z,83
2023-06-08T05:50:15.938Z,84
2023-06-08T05:50:45.016Z,83
2023-06-08T05:51:17.646Z,83
2023-06-08T05:51:47.593Z,83
2023-06-08T05:52:18.858Z,83
2023-06-08T05:52:50.102Z,84
2023-06-08T05:53:21.174Z,84
2023-06-08T05:53:51.071Z,84
2023-06-08T05:54:23.420Z,84
2023-06-08T05:54:52.996Z,84
2023-06-08T05:55:25.231Z,84
2023-06-08T05:55:55.022Z,84
2023-06-08T05:56:26.680Z,84
2023-06-08T05:56:57.007Z,85
2023-06-08T05:57:28.853Z,86
2023-06-08T05:58:00.128Z,86
2023-06-08T05:58:48.185Z,86
2023-06-08T05:59:01.326Z,86
2023-06-08T05:59:32.724Z,85
2023-06-08T06:00:04.534Z,85
2023-06-08T06:00:36.527Z,86
2023-06-08T06:01:05.783Z,86
2023-06-08T06:01:37.513Z,86
2023-06-08T06:02:07.258Z,85
2023-06-08T06:02:39.193Z,86
2023-06-08T06:03:10.114Z,86
2023-06-08T06:03:42.121Z,86
2023-06-08T06:04:22.347Z,85
2023-06-08T06:04:43.007Z,86
2023-06-08T06:05:14.633Z,85
2023-06-08T06:05:44.981Z,85
2023-06-08T06:06:15.051Z,85
2023-06-08T06:06:48.637Z,85
2023-06-08T06:07:16.983Z,85
2023-06-08T06:07:49.494Z,84
2023-06-08T06:08:20.084Z,84
2023-06-08T06:08:50.772Z,84
2023-06-08T06:09:21.027Z,83
2023-06-08T06:09:52.682Z,83
2023-06-08T06:10:23.498Z,83
2023-06-08T06:10:54.677Z,82
2023-06-08T06:11:25.102Z,83
2023-06-08T06:11:56.647Z,83
2023-06-08T06:12:27.213Z,83
2023-06-08T06:12:58.795Z,84
2023-06-08T06:13:30.050Z,83
2023-06-08T06:14:01.130Z,83
2023-06-08T06:14:31.102Z,83
2023-06-08T06:15:03.789Z,83
2023-06-08T06:15:33.137Z,83
2023-06-08T06:16:04.890Z,82
2023-06-08T06:16:35.066Z,82
2023-06-08T06:17:07.829Z,82
2023-06-08T06:17:37.164Z,82
2023-06-08T06:18:09.135Z,82
2023-06-08T06:18:40.134Z,82
2023-06-08T06:19:10.774Z,83
2023-06-08T06:19:41.012Z,83
2023-06-08T06:20:13.427Z,83
2023-06-08T06:20:43.599Z,83
2023-06-08T06:21:15.669Z,83
2023-06-08T06:21:44.991Z,82
2023-06-08T06:22:16.862Z,82
2023-06-08T06:22:47.079Z,82
2023-06-08T06:23:18.660Z,82
2023-06-08T06:23:50.875Z,83
2023-06-08T06:24:21.765Z,83
2023-06-08T06:24:52.729Z,84
2023-06-08T06:25:24.017Z,83
2023-06-08T06:25:53.860Z,82
2023-06-08T06:26:24.018Z,83
2023-06-08T06:26:55.765Z,83
2023-06-08T06:27:26.039Z,82
2023-06-08T06:27:58.345Z,83
2023-06-08T06:28:27.997Z,84
2023-06-08T06:29:00.933Z,84
2023-06-08T06:29:30.013Z,83
2023-06-08T06:30:03.558Z,83
2023-06-08T06:30:32.082Z,84
2023-06-08T06:31:03.691Z,83
2023-06-08T06:31:34.058Z,83
2023-06-08T06:32:05.885Z,83
2023-06-08T06:32:35.999Z,83
2023-06-08T06:33:07.796Z,85
2023-06-08T06:33:37.941Z,84
2023-06-08T06:34:12.009Z,84
2023-06-08T06:34:41.137Z,83
2023-06-08T06:35:11.865Z,83
2023-06-08T06:35:42.929Z,83
2023-06-08T06:36:13.004Z,83
2023-06-08T06:36:44.748Z,83
2023-06-08T06:37:15.043Z,83
2023-06-08T06:37:46.842Z,84
2023-06-08T06:38:17.422Z,83
2023-06-08T06:38:48.707Z,83
2023-06-08T06:39:20.069Z,83
2023-06-08T06:39:50.675Z,82
2023-06-08T06:40:21.642Z,81
2023-06-08T06:40:52.998Z,82
2023-06-08T06:41:23.039Z,82
2023-06-08T06:41:54.793Z,81
2023-06-08T06:42:25.151Z,82
2023-06-08T06:42:56.718Z,83
2023-06-08T06:43:26.983Z,82
2023-06-08T06:43:58.852Z,83
2023-06-08T06:44:30.025Z,83
2023-06-08T06:45:01.891Z,83
2023-06-08T06:45:32.677Z,82
2023-06-08T06:46:02.749Z,82
2023-06-08T06:46:33.025Z,82
2023-06-08T06:47:06.888Z,83
2023-06-08T06:47:35.026Z,82
2023-06-08T06:48:06.936Z,83
2023-06-08T06:48:37.667Z,83
2023-06-08T06:49:07.989Z,83
2023-06-08T06:49:40.817Z,83
2023-06-08T06:50:10.730Z,83
2023-06-08T06:50:41.727Z,83
2023-06-08T06:51:12.098Z,83
2023-06-08T06:51:44.047Z,82
2023-06-08T06:52:15.264Z,82
2023-06-08T06:52:46.748Z,83
2023-06-08T06:53:16.090Z,83
2023-06-08T06:53:48.498Z,83
2023-06-08T06:54:18.032Z,83
2023-06-08T06:54:56.305Z,83
2023-06-08T06:55:07.079Z,83
2023-06-08T06:55:45.427Z,83
2023-06-08T06:55:51.476Z,83
2023-06-08T06:56:23.942Z,83
2023-06-08T06:56:52.998Z,83
2023-06-08T06:57:25.157Z,83
2023-06-08T06:57:54.967Z,83
2023-06-08T06:58:26.694Z,82
2023-06-08T06:58:57.917Z,82
2023-06-08T06:59:28.668Z,82
2023-06-08T07:00:00.070Z,82
2023-06-08T07:00:32.045Z,82
2023-06-08T07:01:06.129Z,82
2023-06-08T07:01:33.908Z,82
2023-06-08T07:02:03.382Z,83
2023-06-08T07:02:34.852Z,83
2023-06-08T07:03:05.329Z,82
2023-06-08T07:03:37.047Z,82
2023-06-08T07:04:07.279Z,83
2023-06-08T07:04:39.135Z,83
2023-06-08T07:05:10.796Z,83
2023-06-08T07:05:41.121Z,83
2023-06-08T07:06:11.096Z,83
2023-06-08T07:06:43.915Z,83
2023-06-08T07:07:13.082Z,83
2023-06-08T07:07:44.797Z,82
2023-06-08T07:08:15.049Z,82
2023-06-08T07:08:46.698Z,82
2023-06-08T07:09:17.036Z,82
2023-06-08T07:09:48.884Z,82
2023-06-08T07:10:21.702Z,82
2023-06-08T07:10:50.855Z,81
2023-06-08T07:11:21.463Z,82
2023-06-08T07:12:05.536Z,82
2023-06-08T07:12:23.926Z,82
2023-06-08T07:12:54.730Z,82
2023-06-08T07:13:25.005Z,82
2023-06-08T07:13:56.738Z,82
2023-06-08T07:14:27.162Z,82
2023-06-08T07:14:59.443Z,83
2023-06-08T07:15:31.015Z,83
2023-06-08T07:16:01.413Z,81
2023-06-08T07:16:31.324Z,82
2023-06-08T07:17:07.660Z,81
2023-06-08T07:17:33.100Z,82
2023-06-08T07:18:04.122Z,81
2023-06-08T07:18:35.754Z,81
2023-06-08T07:19:06.744Z,80
2023-06-08T07:19:37.830Z,79
2023-06-08T07:20:08.863Z,80
2023-06-08T07:20:43.568Z,81
2023-06-08T07:21:10.164Z,80
2023-06-08T07:21:53.830Z,79
2023-06-08T07:22:27.812Z,79